Time;durP1;ratioP1;P1;durP2;ratioP2;P2;SDS_P1;SDS_P2;PMS_P1;PMS_P2;Temp;Humidity;BMP_temperature;BMP_pressure;BME280_temperature;BME280_humidity;BME280_pressure;Samples;Min_cycle;Max_cycle;Signal;HPM_P1;HPM_P2
2023/05/29 00:00:23;;;;;;;11.00;4.50;;;12.70;99.90;;;;;;5012126;28;20494;-51
2023/05/29 00:02:50;;;;;;;7.83;4.20;;;12.50;99.90;;;;;;5012335;28;20862;-52
2023/05/29 00:05:18;;;;;;;7.43;4.20;;;12.50;99.90;;;;;;5008755;28;20594;-51
2023/05/29 00:07:45;;;;;;;9.50;4.90;;;12.40;99.90;;;;;;5012838;28;20888;-52
2023/05/29 00:10:12;;;;;;;7.70;4.50;;;12.40;99.90;;;;;;5012223;28;20460;-53
2023/05/29 00:12:40;;;;;;;10.60;4.87;;;12.30;99.90;;;;;;5010079;28;20464;-51
2023/05/29 00:15:08;;;;;;;11.00;4.90;;;12.20;91.50;;;;;;5011886;28;20468;-51
2023/05/29 00:17:36;;;;;;;8.87;4.23;;;11.90;78.80;;;;;;5012670;28;20468;-51
2023/05/29 00:20:06;;;;;;;13.43;5.37;;;11.90;56.20;;;;;;5010721;28;20444;-51
2023/05/29 00:22:33;;;;;;;8.63;4.80;;;12.00;46.40;;;;;;5011725;28;20487;-51
2023/05/29 00:25:00;;;;;;;8.57;4.23;;;11.90;40.10;;;;;;5008838;28;20545;-50
2023/05/29 00:27:26;;;;;;;8.63;5.20;;;11.80;37.40;;;;;;5011570;28;20498;-51
2023/05/29 00:29:53;;;;;;;7.10;4.50;;;11.80;35.60;;;;;;5011384;28;20448;-51
2023/05/29 00:32:19;;;;;;;8.77;4.60;;;11.60;21.30;;;;;;5005581;28;20881;-51
2023/05/29 00:34:47;;;;;;;12.63;5.40;;;11.60;89.20;;;;;;5012333;28;20451;-52
2023/05/29 00:37:14;;;;;;;8.70;4.60;;;11.60;90.80;;;;;;5010184;28;20471;-52
2023/05/29 00:39:41;;;;;;;9.40;4.57;;;11.60;97.60;;;;;;5010971;28;20470;-52
2023/05/29 00:42:07;;;;;;;6.80;4.43;;;11.60;99.90;;;;;;5011063;28;20530;-51
2023/05/29 00:44:35;;;;;;;7.80;4.30;;;11.50;99.90;;;;;;5010899;28;20525;-51
2023/05/29 00:47:02;;;;;;;8.43;4.33;;;11.40;99.90;;;;;;5012132;28;20472;-51
2023/05/29 00:49:29;;;;;;;6.20;4.13;;;11.30;99.90;;;;;;5010964;28;20463;-52
2023/05/29 00:51:57;;;;;;;5.57;4.30;;;11.20;99.90;;;;;;5011440;28;20463;-52
2023/05/29 00:54:27;;;;;;;8.90;5.03;;;11.10;99.90;;;;;;5009049;28;20467;-52
2023/05/29 00:56:55;;;;;;;9.80;5.60;;;11.10;99.90;;;;;;5011454;28;20487;-52
2023/05/29 00:59:23;;;;;;;7.13;4.73;;;11.10;99.90;;;;;;5011141;28;20870;-53
2023/05/29 01:01:50;;;;;;;10.80;4.90;;;11.00;99.90;;;;;;5010502;28;20555;-51
2023/05/29 01:04:17;;;;;;;6.10;4.30;;;10.90;99.90;;;;;;5010685;28;20954;-51
2023/05/29 01:06:45;;;;;;;11.30;4.90;;;11.00;99.90;;;;;;5010969;28;20488;-53
2023/05/29 01:09:14;;;;;;;7.03;4.60;;;11.00;99.90;;;;;;5011427;28;20440;-51
2023/05/29 01:11:51;;;;;;;10.50;4.83;;;10.80;99.90;;;;;;5009076;28;20460;-53
2023/05/29 01:14:24;;;;;;;8.83;5.10;;;10.80;99.90;;;;;;5009935;28;21012;-51
2023/05/29 01:17:00;;;;;;;16.53;5.40;;;10.70;99.90;;;;;;5010149;28;21099;-53
2023/05/29 01:19:43;;;;;;;8.33;4.67;;;10.70;99.90;;;;;;5011173;28;20486;-51
2023/05/29 01:22:14;;;;;;;10.40;4.60;;;10.60;99.90;;;;;;5000758;28;20475;-51
2023/05/29 01:24:50;;;;;;;8.93;4.50;;;10.50;99.90;;;;;;5008853;28;20806;-51
2023/05/29 01:27:20;;;;;;;7.57;4.20;;;10.50;99.90;;;;;;5009910;28;20483;-52
2023/05/29 01:29:48;;;;;;;8.33;4.43;;;10.50;99.90;;;;;;5010382;28;20491;-51
2023/05/29 01:32:15;;;;;;;12.90;5.33;;;10.40;99.90;;;;;;5011256;28;20456;-51
2023/05/29 01:34:41;;;;;;;6.97;4.47;;;10.30;99.90;;;;;;5011202;28;20498;-52
2023/05/29 01:37:08;;;;;;;7.87;4.03;;;10.20;99.90;;;;;;5005707;28;20997;-52
2023/05/29 01:39:36;;;;;;;8.63;5.10;;;10.10;99.90;;;;;;5008561;28;20522;-52
2023/05/29 01:42:05;;;;;;;10.53;5.37;;;10.10;99.90;;;;;;5010745;28;20818;-51
2023/05/29 01:44:33;;;;;;;8.87;4.53;;;10.10;99.90;;;;;;5009724;28;20468;-52
2023/05/29 01:47:00;;;;;;;5.23;4.63;;;10.10;99.90;;;;;;5009951;28;20618;-51
2023/05/29 01:49:29;;;;;;;8.23;4.57;;;10.10;99.90;;;;;;5009594;28;20471;-53
2023/05/29 01:51:55;;;;;;;7.60;4.37;;;10.10;99.90;;;;;;5009191;28;20467;-51
2023/05/29 01:54:22;;;;;;;7.53;4.60;;;10.10;99.90;;;;;;5010331;28;20475;-53
2023/05/29 01:56:51;;;;;;;6.33;4.60;;;10.00;99.90;;;;;;5011470;28;20476;-50
2023/05/29 01:59:18;;;;;;;10.70;4.80;;;9.90;99.90;;;;;;5010346;28;20468;-51
2023/05/29 02:01:46;;;;;;;8.03;4.87;;;9.90;99.90;;;;;;5011723;28;20475;-51
2023/05/29 02:04:12;;;;;;;12.03;5.63;;;9.90;99.90;;;;;;5010851;28;20463;-51
2023/05/29 02:06:39;;;;;;;7.20;4.90;;;9.80;99.90;;;;;;5010357;28;20487;-51
2023/05/29 02:09:06;;;;;;;5.97;4.20;;;9.80;99.90;;;;;;5014701;28;20864;-53
2023/05/29 02:11:33;;;;;;;7.20;5.00;;;9.80;99.90;;;;;;5014792;28;20458;-52
2023/05/29 02:14:01;;;;;;;7.60;4.67;;;9.70;99.90;;;;;;5015031;28;21019;-51
2023/05/29 02:16:28;;;;;;;12.10;4.80;;;9.60;99.90;;;;;;5013648;28;20487;-52
2023/05/29 02:18:57;;;;;;;10.53;5.27;;;9.60;99.90;;;;;;5014156;28;20507;-53
2023/05/29 02:21:23;;;;;;;6.10;4.23;;;9.60;99.90;;;;;;5008794;28;21032;-53
2023/05/29 02:23:50;;;;;;;6.07;4.87;;;9.60;99.90;;;;;;5014062;28;20574;-52
2023/05/29 02:26:17;;;;;;;7.70;5.23;;;9.60;99.90;;;;;;5008036;28;20472;-52
2023/05/29 02:28:43;;;;;;;8.63;5.30;;;9.70;99.90;;;;;;5015285;28;20440;-52
2023/05/29 02:31:10;;;;;;;12.07;5.50;;;9.50;99.90;;;;;;5014453;28;20999;-52
2023/05/29 02:33:36;;;;;;;12.53;5.40;;;9.60;99.90;;;;;;5012824;28;20459;-52
2023/05/29 02:36:11;;;;;;;11.70;5.43;;;9.30;99.90;;;;;;5013376;28;20463;-52
2023/05/29 02:38:38;;;;;;;13.47;4.97;;;9.30;99.90;;;;;;5014452;28;20805;-53
2023/05/29 02:41:05;;;;;;;7.90;5.07;;;9.20;99.90;;;;;;5013612;28;20463;-51
2023/05/29 02:43:32;;;;;;;7.50;4.93;;;9.30;99.90;;;;;;5014549;28;20494;-53
2023/05/29 02:45:58;;;;;;;10.13;5.23;;;9.40;99.90;;;;;;5014311;28;20533;-51
2023/05/29 02:48:25;;;;;;;11.60;5.40;;;9.20;99.90;;;;;;5013624;28;20978;-52
2023/05/29 02:50:52;;;;;;;7.70;4.87;;;9.10;99.90;;;;;;5013570;28;20470;-52
2023/05/29 02:53:20;;;;;;;5.80;4.57;;;9.20;99.90;;;;;;5013084;28;20871;-52
2023/05/29 02:55:48;;;;;;;7.07;4.53;;;9.20;99.90;;;;;;5013027;28;20883;-51
2023/05/29 02:58:16;;;;;;;9.47;5.00;;;9.20;99.90;;;;;;5014578;28;20452;-52
2023/05/29 03:00:42;;;;;;;14.63;4.73;;;9.10;99.90;;;;;;5011056;28;20459;-52
2023/05/29 03:03:09;;;;;;;6.00;4.77;;;9.20;99.90;;;;;;5012837;28;20495;-52
2023/05/29 03:05:36;;;;;;;7.10;4.50;;;9.20;99.90;;;;;;5011913;28;20547;-52
2023/05/29 03:08:03;;;;;;;7.93;5.23;;;9.30;99.90;;;;;;5012534;28;20464;-51
2023/05/29 03:10:31;;;;;;;8.33;4.70;;;9.30;99.90;;;;;;5013541;28;20472;-51
2023/05/29 03:12:57;;;;;;;8.17;5.20;;;9.40;99.90;;;;;;5013461;28;20953;-52
2023/05/29 03:15:24;;;;;;;17.17;5.90;;;9.40;99.90;;;;;;5011632;28;20845;-51
2023/05/29 03:17:50;;;;;;;5.40;4.40;;;9.50;99.90;;;;;;5013598;28;20981;-52
2023/05/29 03:20:17;;;;;;;6.83;4.80;;;9.50;99.90;;;;;;5013493;28;20525;-51
2023/05/29 03:22:43;;;;;;;8.17;5.00;;;9.60;99.90;;;;;;5013539;28;20827;-53
2023/05/29 03:25:10;;;;;;;5.80;4.30;;;9.60;99.90;;;;;;5010034;28;20510;-51
2023/05/29 03:27:39;;;;;;;9.90;4.50;;;9.50;99.90;;;;;;5013001;28;20937;-52
2023/05/29 03:30:07;;;;;;;8.53;4.47;;;9.60;99.90;;;;;;5013373;28;20458;-51
2023/05/29 03:32:33;;;;;;;5.97;4.53;;;9.40;99.90;;;;;;5013737;28;20452;-51
2023/05/29 03:35:00;;;;;;;10.60;4.53;;;9.40;99.90;;;;;;5012963;28;20459;-51
2023/05/29 03:37:27;;;;;;;9.27;5.07;;;9.40;99.90;;;;;;5013654;28;20468;-53
2023/05/29 03:39:53;;;;;;;10.07;4.30;;;9.40;99.90;;;;;;5012958;28;20876;-52
2023/05/29 03:42:21;;;;;;;6.67;4.80;;;9.50;99.90;;;;;;5011207;28;20480;-53
2023/05/29 03:44:49;;;;;;;9.10;4.70;;;9.60;99.90;;;;;;5013227;28;20494;-51
2023/05/29 03:47:16;;;;;;;6.13;4.60;;;9.60;99.90;;;;;;5014613;28;20472;-53
2023/05/29 03:49:42;;;;;;;6.50;4.63;;;9.60;1.40;;;;;;5010750;28;20468;-51
2023/05/29 03:52:09;;;;;;;8.17;4.30;;;9.60;99.90;;;;;;5012664;28;20460;-52
2023/05/29 03:54:36;;;;;;;7.83;5.43;;;9.70;99.90;;;;;;5007056;28;20908;-52
2023/05/29 03:57:03;;;;;;;7.27;4.80;;;9.70;99.90;;;;;;5014481;28;20483;-51
2023/05/29 03:59:29;;;;;;;12.23;5.07;;;9.80;99.90;;;;;;5012815;28;20464;-51
2023/05/29 04:01:57;;;;;;;9.07;4.73;;;9.80;99.90;;;;;;5011409;28;20464;-52
2023/05/29 04:04:24;;;;;;;9.77;4.63;;;9.90;99.90;;;;;;5012444;28;20535;-51
2023/05/29 04:06:51;;;;;;;7.30;4.80;;;9.90;99.90;;;;;;5011820;28;20484;-52
2023/05/29 04:09:17;;;;;;;4.90;4.40;;;10.00;99.90;;;;;;5011092;28;20558;-50
2023/05/29 04:11:44;;;;;;;11.53;4.20;;;10.00;99.90;;;;;;5012766;28;20468;-51
2023/05/29 04:14:11;;;;;;;7.17;4.50;;;10.10;99.90;;;;;;5012917;28;20448;-52
2023/05/29 04:16:37;;;;;;;6.03;4.27;;;10.20;99.90;;;;;;5013536;28;20483;-52
2023/05/29 04:19:05;;;;;;;7.80;5.83;;;10.20;99.90;;;;;;5010540;28;20456;-53
2023/05/29 04:21:34;;;;;;;11.60;5.13;;;10.30;99.90;;;;;;5012379;28;20464;-51
2023/05/29 04:24:01;;;;;;;8.60;3.97;;;10.40;99.90;;;;;;5011865;28;20491;-52
2023/05/29 04:26:27;;;;;;;6.80;4.77;;;10.50;99.90;;;;;;5014230;28;20483;-53
2023/05/29 04:28:56;;;;;;;8.73;4.80;;;10.60;99.90;;;;;;5011435;28;20526;-52
2023/05/29 04:31:24;;;;;;;6.23;4.30;;;10.60;99.90;;;;;;5011441;28;20460;-52
2023/05/29 04:33:54;;;;;;;6.03;4.90;;;10.80;99.90;;;;;;5012547;28;20440;-52
2023/05/29 04:36:23;;;;;;;7.20;4.60;;;10.80;99.90;;;;;;5010838;28;21009;-51
2023/05/29 04:38:51;;;;;;;8.37;4.93;;;10.90;99.90;;;;;;5011778;28;20444;-52
2023/05/29 04:41:17;;;;;;;7.00;4.70;;;11.00;99.90;;;;;;5009014;28;20467;-52
2023/05/29 04:43:44;;;;;;;8.27;4.90;;;11.00;99.90;;;;;;5011877;28;20528;-51
2023/05/29 04:46:12;;;;;;;9.40;5.00;;;11.10;99.90;;;;;;5013057;28;20896;-51
2023/05/29 04:48:40;;;;;;;8.20;4.27;;;11.10;99.90;;;;;;5012495;28;20448;-51
2023/05/29 04:51:10;;;;;;;5.90;4.83;;;11.20;99.90;;;;;;5011315;28;20467;-51
2023/05/29 04:53:38;;;;;;;8.50;4.90;;;11.20;99.90;;;;;;5011573;28;20482;-51
2023/05/29 04:56:05;;;;;;;11.50;5.30;;;11.20;99.90;;;;;;5011804;28;20495;-51
2023/05/29 04:58:32;;;;;;;6.47;4.70;;;11.30;99.90;;;;;;5012579;28;20452;-54
2023/05/29 05:00:59;;;;;;;10.23;5.00;;;11.40;99.90;;;;;;5011226;28;20464;-55
2023/05/29 05:03:25;;;;;;;9.00;5.13;;;11.50;99.90;;;;;;5011993;28;20483;-54
2023/05/29 05:05:52;;;;;;;7.83;5.20;;;11.60;99.90;;;;;;5011922;28;20896;-55
2023/05/29 05:08:19;;;;;;;13.33;5.57;;;11.70;99.90;;;;;;5012002;28;20444;-56
2023/05/29 05:10:47;;;;;;;10.23;4.87;;;11.70;99.90;;;;;;5011197;28;20527;-54
2023/05/29 05:13:13;;;;;;;11.13;5.10;;;11.80;99.90;;;;;;5009742;28;20872;-54
2023/05/29 05:15:40;;;;;;;7.87;4.87;;;11.90;99.90;;;;;;5009580;28;20463;-54
2023/05/29 05:18:06;;;;;;;17.03;5.43;;;12.10;99.90;;;;;;5010732;28;20839;-57
2023/05/29 05:20:33;;;;;;;7.70;5.20;;;12.20;99.90;;;;;;5010481;28;20517;-55
2023/05/29 05:23:01;;;;;;;10.00;5.80;;;12.20;99.90;;;;;;5011743;28;20533;-55
2023/05/29 05:25:27;;;;;;;15.10;4.60;;;12.30;99.90;;;;;;5011048;28;20467;-55
2023/05/29 05:27:55;;;;;;;7.17;5.23;;;12.40;99.90;;;;;;5011631;28;20487;-55
2023/05/29 05:30:22;;;;;;;9.97;4.60;;;12.50;99.90;;;;;;5012046;28;20447;-55
2023/05/29 05:32:48;;;;;;;9.30;5.33;;;12.50;99.90;;;;;;5010481;28;20518;-55
2023/05/29 05:35:15;;;;;;;6.83;4.50;;;12.70;99.90;;;;;;5010468;28;20502;-54
2023/05/29 05:37:42;;;;;;;7.00;4.63;;;12.70;99.90;;;;;;5009253;28;20946;-57
2023/05/29 05:40:10;;;;;;;7.07;4.00;;;12.80;99.90;;;;;;5007387;28;20527;-55
2023/05/29 05:42:37;;;;;;;7.33;4.60;;;12.80;99.90;;;;;;5014171;28;20484;-54
2023/05/29 05:45:06;;;;;;;7.47;5.10;;;12.90;99.90;;;;;;5012709;28;20870;-55
2023/05/29 05:47:32;;;;;;;6.47;5.00;;;13.00;99.90;;;;;;5012063;28;20479;-56
2023/05/29 05:49:59;;;;;;;7.17;4.13;;;13.00;99.90;;;;;;5015334;28;20509;-54
2023/05/29 05:52:30;;;;;;;10.63;4.73;;;13.10;99.90;;;;;;5013437;28;20505;-55
2023/05/29 05:54:56;;;;;;;7.97;3.77;;;13.20;99.90;;;;;;5013163;28;20524;-56
2023/05/29 05:57:23;;;;;;;6.07;4.00;;;13.20;99.90;;;;;;5013972;28;20517;-55
2023/05/29 05:59:50;;;;;;;4.90;4.33;;;13.30;99.90;;;;;;5014668;28;20941;-53
2023/05/29 06:02:18;;;;;;;6.27;4.20;;;13.40;99.90;;;;;;5014908;28;20463;-54
2023/05/29 06:04:44;;;;;;;7.53;4.50;;;13.50;99.90;;;;;;5014892;28;20836;-55
2023/05/29 06:07:11;;;;;;;9.63;4.10;;;13.60;99.90;;;;;;5015735;28;20479;-54
2023/05/29 06:09:38;;;;;;;7.70;4.80;;;13.70;99.90;;;;;;5015580;28;20844;-55
2023/05/29 06:12:07;;;;;;;5.80;4.30;;;13.80;99.90;;;;;;5014710;28;20468;-54
2023/05/29 06:14:34;;;;;;;5.97;4.07;;;13.90;99.10;;;;;;5013872;28;20958;-56
2023/05/29 06:17:01;;;;;;;5.30;3.87;;;14.00;91.30;;;;;;5015586;28;20488;-55
2023/05/29 06:19:29;;;;;;;4.60;3.63;;;14.10;85.40;;;;;;5015323;28;20443;-55
2023/05/29 06:21:56;;;;;;;8.50;4.47;;;14.20;93.60;;;;;;5015313;28;20881;-55
2023/05/29 06:24:23;;;;;;;3.87;3.57;;;14.40;28.20;;;;;;5013579;28;20541;-57
2023/05/29 06:26:50;;;;;;;6.73;3.80;;;14.50;31.20;;;;;;5014558;28;20890;-55
2023/05/29 06:29:16;;;;;;;4.70;3.87;;;14.60;63.10;;;;;;5014972;28;20452;-56
2023/05/29 06:31:43;;;;;;;3.93;3.60;;;14.70;98.20;;;;;;5014953;28;20498;-55
2023/05/29 06:34:09;;;;;;;4.17;3.77;;;14.90;99.90;;;;;;5014483;28;20502;-55
2023/05/29 06:36:38;;;;;;;5.17;3.57;;;15.00;99.90;;;;;;5011147;28;20861;-55
2023/05/29 06:39:04;;;;;;;2.80;2.60;;;15.20;99.90;;;;;;5011222;28;20455;-54
2023/05/29 06:41:31;;;;;;;7.57;3.73;;;15.40;99.90;;;;;;5011542;28;20506;-55
2023/05/29 06:43:57;;;;;;;3.40;3.10;;;15.50;40.80;;;;;;5013576;28;20549;-55
2023/05/29 06:46:24;;;;;;;5.40;3.00;;;15.70;58.00;;;;;;5014604;28;20469;-56
2023/05/29 06:48:51;;;;;;;8.73;2.27;;;15.80;82.80;;;;;;5014682;28;20444;-56
2023/05/29 06:51:18;;;;;;;4.63;2.23;;;15.90;99.90;;;;;;5014773;28;20522;-56
2023/05/29 06:53:46;;;;;;;3.83;2.53;;;16.00;99.90;;;;;;5011937;28;20514;-54
2023/05/29 06:56:13;;;;;;;4.67;2.60;;;16.10;99.90;;;;;;5013875;28;20546;-54
2023/05/29 06:58:40;;;;;;;3.13;2.77;;;16.10;99.90;;;;;;5013287;28;20448;-54
2023/05/29 07:01:06;;;;;;;2.37;2.17;;;16.20;99.90;;;;;;5011264;28;20518;-55
2023/05/29 07:03:35;;;;;;;6.37;2.83;;;16.20;99.90;;;;;;5014107;28;20538;-57
2023/05/29 07:06:02;;;;;;;4.63;2.40;;;16.20;99.90;;;;;;5014611;28;20504;-55
2023/05/29 07:08:29;;;;;;;3.30;2.70;;;16.20;99.90;;;;;;5013320;28;20468;-55
2023/05/29 07:10:57;;;;;;;3.30;2.30;;;16.30;99.90;;;;;;5013659;28;20464;-54
2023/05/29 07:13:26;;;;;;;2.20;2.03;;;16.30;99.90;;;;;;5014093;28;20439;-54
2023/05/29 07:15:53;;;;;;;2.53;2.33;;;16.40;99.90;;;;;;5012679;28;20488;-54
2023/05/29 07:18:19;;;;;;;3.23;2.53;;;16.40;99.90;;;;;;5011562;28;20808;-55
2023/05/29 07:20:46;;;;;;;2.67;2.47;;;16.50;99.90;;;;;;5016854;28;20513;-55
2023/05/29 07:23:13;;;;;;;4.40;2.17;;;16.60;99.90;;;;;;5012004;28;20480;-55
2023/05/29 07:25:39;;;;;;;4.90;2.33;;;16.60;99.90;;;;;;5012517;28;21004;-54
2023/05/29 07:28:07;;;;;;;8.20;2.50;;;16.80;99.90;;;;;;5014088;28;20448;-54
2023/05/29 07:30:34;;;;;;;3.43;2.73;;;16.80;99.90;;;;;;5013715;28;20448;-55
2023/05/29 07:33:01;;;;;;;4.43;2.80;;;16.90;99.90;;;;;;5012889;28;20468;-53
2023/05/29 07:35:27;;;;;;;3.20;2.40;;;17.00;99.90;;;;;;5013471;28;20452;-55
2023/05/29 07:37:54;;;;;;;6.37;3.73;;;17.10;99.90;;;;;;5011264;28;20535;-56
2023/05/29 07:40:21;;;;;;;2.50;2.30;;;17.20;99.90;;;;;;5007274;28;20455;-53
2023/05/29 07:42:48;;;;;;;3.77;2.40;;;17.10;99.90;;;;;;5014013;28;20452;-54
2023/05/29 07:45:16;;;;;;;3.83;2.70;;;17.00;99.90;;;;;;5013437;28;20480;-54
2023/05/29 07:47:42;;;;;;;2.70;2.50;;;17.10;99.90;;;;;;5009112;28;20920;-53
2023/05/29 07:50:10;;;;;;;2.87;2.00;;;17.20;99.90;;;;;;5012608;28;20530;-54
2023/05/29 07:52:37;;;;;;;7.00;2.70;;;17.20;99.90;;;;;;5012399;28;20472;-55
2023/05/29 07:55:04;;;;;;;2.67;2.43;;;17.30;99.90;;;;;;5012606;28;20839;-56
2023/05/29 07:57:30;;;;;;;3.30;2.33;;;17.40;99.90;;;;;;5011873;28;20575;-50
2023/05/29 07:59:57;;;;;;;4.07;2.23;;;17.50;99.90;;;;;;5013423;28;20498;-50
2023/05/29 08:02:26;;;;;;;2.60;2.10;;;17.60;99.90;;;;;;5013559;28;20475;-51
2023/05/29 08:04:52;;;;;;;4.83;3.30;;;17.60;99.90;;;;;;5012077;28;20533;-51
2023/05/29 08:07:20;;;;;;;3.37;2.50;;;17.70;99.90;;;;;;5012021;28;20503;-51
2023/05/29 08:09:46;;;;;;;2.47;2.27;;;17.80;99.90;;;;;;5013030;28;20871;-50
2023/05/29 08:12:13;;;;;;;4.43;2.37;;;17.80;99.90;;;;;;5013036;28;20510;-50
2023/05/29 08:14:39;;;;;;;3.13;2.50;;;17.90;99.90;;;;;;5012800;28;21091;-50
2023/05/29 08:17:06;;;;;;;2.60;2.10;;;18.00;99.90;;;;;;5012936;28;20538;-56
2023/05/29 08:19:35;;;;;;;3.63;2.30;;;18.10;99.90;;;;;;5012430;28;20498;-53
2023/05/29 08:22:01;;;;;;;6.80;2.20;;;18.20;99.90;;;;;;5011662;28;20522;-55
2023/05/29 08:24:28;;;;;;;2.57;2.17;;;18.30;99.90;;;;;;5012408;28;20833;-55
2023/05/29 08:26:55;;;;;;;3.40;2.87;;;18.30;99.90;;;;;;5011021;28;20490;-56
2023/05/29 08:29:21;;;;;;;10.57;2.23;;;18.30;99.90;;;;;;5012935;28;20448;-55
2023/05/29 08:31:48;;;;;;;2.50;2.30;;;18.40;99.90;;;;;;5012720;28;21065;-56
2023/05/29 08:34:15;;;;;;;3.70;2.70;;;18.60;99.90;;;;;;5011600;28;20518;-54
2023/05/29 08:36:45;;;;;;;5.80;2.00;;;18.60;99.90;;;;;;5012225;28;20564;-54
2023/05/29 08:39:11;;;;;;;4.17;2.30;;;18.90;99.90;;;;;;5002519;28;20536;-55
2023/05/29 08:41:47;;;;;;;5.97;2.40;;;18.90;99.90;;;;;;5011769;28;20539;-54
2023/05/29 08:44:15;;;;;;;3.50;2.60;;;19.00;99.90;;;;;;4996976;28;20533;-54
2023/05/29 08:46:42;;;;;;;3.77;2.60;;;19.10;99.90;;;;;;5012677;28;20575;-54
2023/05/29 08:49:15;;;;;;;5.70;2.73;;;19.10;99.90;;;;;;5012179;28;20467;-56
2023/05/29 08:51:46;;;;;;;2.77;2.37;;;19.10;99.90;;;;;;5010779;28;20842;-55
2023/05/29 08:54:15;;;;;;;5.00;2.40;;;18.80;99.90;;;;;;5008691;28;20439;-56
2023/05/29 08:56:41;;;;;;;6.73;3.30;;;18.80;99.90;;;;;;5008524;28;20475;-54
2023/05/29 08:59:09;;;;;;;3.63;2.57;;;18.90;99.90;;;;;;5008738;28;20463;-54
2023/05/29 09:01:37;;;;;;;5.17;2.43;;;18.90;99.90;;;;;;5011595;28;20471;-53
2023/05/29 09:04:04;;;;;;;3.10;2.67;;;19.10;99.90;;;;;;5010647;28;20488;-54
2023/05/29 09:06:31;;;;;;;9.00;2.43;;;19.20;99.90;;;;;;5011733;28;20456;-55
2023/05/29 09:08:59;;;;;;;5.20;2.50;;;19.40;99.90;;;;;;5011601;28;20498;-55
2023/05/29 09:11:25;;;;;;;2.80;2.60;;;20.10;99.90;;;;;;5011137;28;20464;-55
2023/05/29 09:13:53;;;;;;;3.27;2.90;;;20.40;99.90;;;;;;5004600;28;20535;-53
2023/05/29 09:16:20;;;;;;;6.43;2.60;;;20.30;99.90;;;;;;5010992;28;20464;-54
2023/05/29 09:18:46;;;;;;;6.73;2.90;;;20.00;99.90;;;;;;5010304;28;20468;-54
2023/05/29 09:21:26;;;;;;;11.23;2.43;;;19.90;99.90;;;;;;5011205;28;20808;-55
2023/05/29 09:23:53;;;;;;;4.27;2.73;;;19.40;99.90;;;;;;5009778;28;20483;-54
2023/05/29 09:26:22;;;;;;;6.67;3.00;;;19.70;99.90;;;;;;5009166;28;20487;-53
2023/05/29 09:28:49;;;;;;;4.87;2.60;;;19.60;99.90;;;;;;5008148;28;20934;-54
2023/05/29 09:31:17;;;;;;;4.90;2.67;;;19.80;99.90;;;;;;5010311;28;20482;-54
2023/05/29 09:33:48;;;;;;;4.77;2.33;;;20.10;99.90;;;;;;5006021;28;20464;-54
2023/05/29 09:36:21;;;;;;;3.43;2.50;;;20.40;99.90;;;;;;5010125;28;20497;-55
2023/05/29 09:38:48;;;;;;;4.50;2.87;;;20.60;99.90;;;;;;5010930;28;20468;-54
2023/05/29 09:41:23;;;;;;;3.00;2.77;;;20.70;99.90;;;;;;5009666;28;20510;-54
2023/05/29 09:43:50;;;;;;;3.97;3.13;;;20.30;99.90;;;;;;5007070;28;20878;-51
2023/05/29 09:46:17;;;;;;;3.73;2.53;;;20.00;99.90;;;;;;5011257;28;20480;-51
2023/05/29 09:48:46;;;;;;;2.83;2.60;;;19.90;99.90;;;;;;5007938;28;20472;-52
2023/05/29 09:51:21;;;;;;;4.43;2.63;;;20.20;99.90;;;;;;5010719;28;21150;-51
2023/05/29 09:53:50;;;;;;;7.43;3.23;;;20.80;99.90;;;;;;5009854;28;20467;-52
2023/05/29 09:56:17;;;;;;;4.47;2.93;;;20.30;99.90;;;;;;5007932;28;20594;-52
2023/05/29 09:58:46;;;;;;;7.60;3.03;;;19.90;99.90;;;;;;5008948;28;20474;-52
2023/05/29 10:01:15;;;;;;;4.60;2.80;;;19.70;99.90;;;;;;5008277;28;20610;-51
2023/05/29 10:03:42;;;;;;;7.07;3.10;;;19.40;99.90;;;;;;5005606;28;20831;-50
2023/05/29 10:06:11;;;;;;;4.63;3.20;;;19.40;99.90;;;;;;5011290;28;21233;-51
2023/05/29 10:08:40;;;;;;;5.47;2.57;;;20.00;99.90;;;;;;5007622;28;20868;-52
2023/05/29 10:11:09;;;;;;;4.10;2.87;;;20.50;99.90;;;;;;5007863;28;20502;-52
2023/05/29 10:13:39;;;;;;;5.77;3.60;;;21.10;99.90;;;;;;5006317;28;20528;-52
2023/05/29 10:16:11;;;;;;;6.70;3.10;;;21.00;99.90;;;;;;5011177;28;20508;-51
2023/05/29 10:18:39;;;;;;;6.00;4.90;;;20.60;99.90;;;;;;5010055;28;20464;-52
2023/05/29 10:21:08;;;;;;;4.10;3.50;;;20.50;99.90;;;;;;5009768;28;20991;-51
2023/05/29 10:23:38;;;;;;;5.10;2.40;;;20.20;99.90;;;;;;5005998;28;20546;-50
2023/05/29 10:26:11;;;;;;;4.03;2.80;;;19.90;99.90;;;;;;5009525;28;20487;-52
2023/05/29 10:28:44;;;;;;;13.90;3.70;;;19.90;99.90;;;;;;5007164;28;20977;-52
2023/05/29 10:31:19;;;;;;;2.70;2.50;;;20.80;99.90;;;;;;5010922;28;20479;-52
2023/05/29 10:33:59;;;;;;;15.00;3.73;;;21.40;99.90;;;;;;5010939;28;20501;-51
2023/05/29 10:36:31;;;;;;;5.50;3.63;;;21.80;99.90;;;;;;5011756;28;21043;-51
2023/05/29 10:38:58;;;;;;;5.53;3.10;;;22.40;99.90;;;;;;5014067;28;20530;-51
2023/05/29 10:41:39;;;;;;;2.33;2.13;;;22.50;99.90;;;;;;5012798;28;20683;-51
2023/05/29 10:44:40;;;;;;;6.47;3.60;;;21.60;99.90;;;;;;5010296;28;20470;-51
2023/05/29 10:47:10;;;;;;;4.93;3.27;;;21.20;99.90;;;;;;5010694;28;20575;-53
2023/05/29 10:49:37;;;;;;;3.13;2.83;;;21.30;99.90;;;;;;5007547;28;20867;-52
2023/05/29 10:52:06;;;;;;;5.03;3.20;;;21.50;99.90;;;;;;5011814;28;20467;-51
2023/05/29 10:54:50;;;;;;;4.20;2.37;;;22.20;99.90;;;;;;5015435;28;20464;-51
2023/05/29 10:57:16;;;;;;;3.73;2.70;;;22.60;99.90;;;;;;5008107;28;20541;-50
2023/05/29 10:59:46;;;;;;;7.90;3.50;;;23.30;99.90;;;;;;5005386;28;20874;-51
2023/05/29 11:02:19;;;;;;;4.67;2.60;;;22.10;99.90;;;;;;5014152;28;20506;-55
2023/05/29 11:05:04;;;;;;;5.43;2.80;;;21.60;99.90;;;;;;5011752;28;20484;-52
2023/05/29 11:07:34;;;;;;;6.70;2.83;;;21.10;99.90;;;;;;5014118;28;20475;-51
2023/05/29 11:10:13;;;;;;;5.03;3.03;;;20.80;99.90;;;;;;5011690;28;20464;-52
2023/05/29 11:12:59;;;;;;;5.37;3.13;;;20.70;99.90;;;;;;5013808;28;20442;-52
2023/05/29 11:15:26;;;;;;;5.30;2.40;;;20.40;99.90;;;;;;5003722;28;20518;-51
2023/05/29 11:17:55;;;;;;;4.03;2.60;;;20.70;99.90;;;;;;5011960;28;20483;-51
2023/05/29 11:20:37;;;;;;;10.60;2.93;;;20.70;99.90;;;;;;5012851;28;20464;-52
2023/05/29 11:23:07;;;;;;;4.43;3.20;;;21.30;99.90;;;;;;5012726;28;20506;-51
2023/05/29 11:25:36;;;;;;;3.13;2.33;;;21.60;99.90;;;;;;5005027;28;20491;-52
2023/05/29 11:28:08;;;;;;;6.53;2.90;;;22.20;99.90;;;;;;5009877;28;20468;-51
2023/05/29 11:30:42;;;;;;;5.00;3.10;;;22.50;99.90;;;;;;5013437;28;20547;-51
2023/05/29 11:33:16;;;;;;;4.60;3.27;;;22.40;99.90;;;;;;5015258;28;20460;-54
2023/05/29 11:35:43;;;;;;;2.83;2.57;;;23.00;99.90;;;;;;5009873;28;20466;-54
2023/05/29 11:38:10;;;;;;;5.60;3.23;;;22.80;99.90;;;;;;5009945;28;20518;-53
2023/05/29 11:40:37;;;;;;;4.60;2.70;;;22.70;99.90;;;;;;5013065;28;20468;-54
2023/05/29 11:43:04;;;;;;;2.93;2.27;;;22.80;99.90;;;;;;5008919;28;20470;-54
2023/05/29 11:45:34;;;;;;;4.67;2.77;;;22.90;99.90;;;;;;5015780;28;20579;-53
2023/05/29 11:48:03;;;;;;;9.37;2.80;;;22.60;99.90;;;;;;5009763;28;20463;-54
2023/05/29 11:50:32;;;;;;;4.40;2.27;;;22.70;99.90;;;;;;5008287;28;20514;-54
2023/05/29 11:53:00;;;;;;;6.77;3.07;;;22.70;99.90;;;;;;5011302;28;20489;-54
2023/05/29 11:55:28;;;;;;;7.70;2.60;;;22.30;99.90;;;;;;5016217;28;20448;-55
2023/05/29 11:57:57;;;;;;;5.07;2.70;;;22.20;99.90;;;;;;5008882;28;20495;-55
2023/05/29 12:00:24;;;;;;;6.53;2.63;;;22.20;99.90;;;;;;5008507;28;20549;-56
2023/05/29 12:02:52;;;;;;;5.90;2.20;;;22.00;99.90;;;;;;5008328;28;20546;-53
2023/05/29 12:05:19;;;;;;;3.30;2.47;;;22.20;99.90;;;;;;5005903;28;20561;-54
2023/05/29 12:07:51;;;;;;;3.77;2.93;;;22.50;99.90;;;;;;5010680;28;20883;-55
2023/05/29 12:10:19;;;;;;;9.13;2.83;;;22.30;99.90;;;;;;5007972;28;20463;-55
2023/05/29 12:12:50;;;;;;;8.60;2.80;;;22.50;99.90;;;;;;5010650;28;20468;-55
2023/05/29 12:15:18;;;;;;;7.90;2.50;;;22.80;99.90;;;;;;5011632;28;20514;-55
2023/05/29 12:17:45;;;;;;;9.13;2.60;;;22.60;99.90;;;;;;5005557;28;21039;-55
2023/05/29 12:20:13;;;;;;;4.30;2.80;;;22.90;99.90;;;;;;5011686;28;20487;-55
2023/05/29 12:22:41;;;;;;;4.60;2.57;;;23.20;99.90;;;;;;5010695;28;20460;-55
2023/05/29 12:25:11;;;;;;;5.30;2.80;;;23.20;99.90;;;;;;5008330;28;20567;-55
2023/05/29 12:27:42;;;;;;;2.83;2.50;;;23.00;99.90;;;;;;5006211;28;22217;-55
2023/05/29 12:30:11;;;;;;;4.60;2.97;;;23.20;99.90;;;;;;5007529;28;20470;-56
2023/05/29 12:32:38;;;;;;;6.90;2.13;;;23.50;99.90;;;;;;5009527;28;20463;-54
2023/05/29 12:35:17;;;;;;;6.37;3.23;;;23.60;99.90;;;;;;5007034;28;20837;-54
2023/05/29 12:37:46;;;;;;;3.87;2.60;;;23.80;99.90;;;;;;5010721;28;20487;-53
2023/05/29 12:40:18;;;;;;;7.50;3.10;;;23.80;99.90;;;;;;5010652;28;20841;-54
2023/05/29 12:42:45;;;;;;;12.50;2.83;;;23.70;99.90;;;;;;5010757;28;21496;-54
2023/05/29 12:45:12;;;;;;;4.90;2.37;;;23.60;99.90;;;;;;5007362;28;20827;-55
2023/05/29 12:47:45;;;;;;;7.70;3.20;;;23.90;99.90;;;;;;5007106;28;20546;-50
2023/05/29 12:50:22;;;;;;;16.67;2.80;;;23.70;99.90;;;;;;5005112;28;20455;-51
2023/05/29 12:52:58;;;;;;;3.40;2.40;;;23.50;99.90;;;;;;5009578;28;20455;-51